Time,TemperatureF,DewpointF,PressureIn,WindDirection,WindDirectionDegrees,WindSpeedMPH,WindSpeedGustMPH,Humidity,HourlyPrecipIn,Conditions,Clouds,dailyrainin,SoftwareType,DateUTC
2013-03-23 08:41:00,20.9,17.9,30.11,NNW,338,0.0,0.0,88,0.00,,,0.00,VWS V14.01,2013-03-23 12:41:00,
2013-03-23 08:42:00,21.2,18.4,30.11,NNW,336,0.0,0.0,89,0.00,,,0.00,VWS V14.01,2013-03-23 12:42:00,
2013-03-23 08:47:00,21.9,19.1,30.11,NNW,336,0.0,0.0,89,0.00,,,0.00,VWS V14.01,2013-03-23 12:47:00,
2013-03-23 08:52:00,22.3,19.5,30.11,NNW,336,0.0,0.0,89,0.00,,CLR,0.00,VWS V14.01,2013-03-23 12:52:00,
2013-03-23 08:57:00,22.8,20.0,30.11,NNW,336,0.0,0.0,89,0.00,,CLR,0.00,VWS V14.01,2013-03-23 12:57:00,
2013-03-23 09:02:00,23.3,20.8,30.11,NNW,336,0.0,0.0,90,0.00,,CLR,0.00,VWS V14.01,2013-03-23 13:02:00,
2013-03-23 09:07:00,23.9,21.4,30.11,NNW,336,0.0,0.0,90,0.00,,CLR,0.00,VWS V14.01,2013-03-23 13:07:00,
2013-03-23 09:12:00,24.3,21.8,30.11,NNW,336,0.0,0.0,90,0.00,,CLR,0.00,VWS V14.01,2013-03-23 13:12:00,
2013-03-23 09:17:00,24.9,22.4,30.11,NNW,336,0.0,0.0,90,0.00,,CLR,0.00,VWS V14.01,2013-03-23 13:17:00,
2013-03-23 09:22:00,25.5,23.2,30.11,NNW,336,0.0,0.0,91,0.00,,CLR,0.00,VWS V14.01,2013-03-23 13:22:00,
2013-03-23 09:27:00,26.1,23.8,30.11,NNW,336,0.0,0.0,91,0.00,,CLR,0.00,VWS V14.01,2013-03-23 13:27:00,
2013-03-23 09:32:00,26.7,24.4,30.11,NNW,336,0.0,0.0,91,0.00,,CLR,0.00,VWS V14.01,2013-03-23 13:32:00,
2013-03-23 09:37:00,27.4,25.1,30.11,NNW,336,0.0,0.0,91,0.00,,CLR,0.00,VWS V14.01,2013-03-23 13:37:00,
2013-03-23 09:42:00,27.9,25.6,30.11,NNW,336,0.0,1.2,91,0.00,,CLR,0.00,VWS V14.01,2013-03-23 13:42:00,
2013-03-23 09:47:00,28.3,26.0,30.11,NE,51,3.5,3.5,91,0.00,,CLR,0.00,VWS V14.01,2013-03-23 13:47:00,
2013-03-23 09:52:00,28.6,26.0,30.11,NE,51,3.5,3.5,90,0.00,,CLR,0.00,VWS V14.01,2013-03-23 13:52:00,
2013-03-23 09:57:00,28.9,26.0,30.11,NE,51,2.4,3.5,89,0.00,,CLR,0.00,VWS V14.01,2013-03-23 13:57:00,
2013-03-23 10:02:00,29.1,26.0,30.11,NNE,32,4.7,4.7,88,0.00,,CLR,0.00,VWS V14.01,2013-03-23 14:02:00,
2013-03-23 10:07:00,29.2,24.6,30.11,North,11,7.1,8.3,83,0.00,,CLR,0.00,VWS V14.01,2013-03-23 14:07:00,
2013-03-23 10:12:00,30.1,24.6,30.11,NNE,26,7.1,10.6,80,0.00,,CLR,0.00,VWS V14.01,2013-03-23 14:12:00,
2013-03-23 10:17:00,30.7,24.0,30.11,NNW,345,5.9,7.1,76,0.00,,CLR,0.00,VWS V14.01,2013-03-23 14:17:00,
2013-03-23 10:22:00,31.6,24.2,30.12,NNE,13,5.9,7.1,74,0.00,,CLR,0.00,VWS V14.01,2013-03-23 14:22:00,
2013-03-23 10:27:00,31.9,23.5,30.12,North,355,7.1,8.3,71,0.00,,CLR,0.00,VWS V14.01,2013-03-23 14:27:00,
2013-03-23 10:32:00,32.5,24.1,30.12,North,355,5.9,7.1,71,0.00,,CLR,0.00,VWS V14.01,2013-03-23 14:32:00,
2013-03-23 10:38:00,32.3,23.2,30.12,North,9,5.9,9.4,69,0.00,,CLR,0.00,VWS V14.01,2013-03-23 14:38:00,
2013-03-23 10:42:00,31.9,22.8,30.12,NNW,337,8.3,10.6,69,0.00,,OVC030,0.00,VWS V14.01,2013-03-23 14:42:00,
2013-03-23 10:48:00,31.7,23.0,30.13,North,360,7.1,8.3,70,0.00,,OVC030,0.00,VWS V14.01,2013-03-23 14:48:00,
2013-03-23 10:53:00,31.4,23.0,30.13,NNW,340,8.3,8.3,71,0.00,,OVC030,0.00,VWS V14.01,2013-03-23 14:53:00,
2013-03-23 10:58:00,31.3,22.9,30.13,North,360,11.8,14.2,71,0.00,,OVC030,0.00,VWS V14.01,2013-03-23 14:58:00,
2013-03-23 11:03:00,31.3,23.2,30.13,NNE,31,8.3,9.4,72,0.00,,OVC030,0.00,VWS V14.01,2013-03-23 15:03:00,
2013-03-23 11:08:00,31.1,22.7,30.13,NNE,25,7.1,8.3,71,0.00,,OVC030,0.00,VWS V14.01,2013-03-23 15:08:00,
2013-03-23 11:13:00,31.1,23.0,30.13,North,350,8.3,9.4,72,0.00,,OVC030,0.00,VWS V14.01,2013-03-23 15:13:00,
2013-03-23 11:18:00,31.4,23.0,30.14,North,5,8.3,8.3,71,0.00,,OVC030,0.00,VWS V14.01,2013-03-23 15:18:00,
2013-03-23 11:23:00,31.4,22.7,30.14,North,5,10.6,13.0,70,0.00,,OVC030,0.00,VWS V14.01,2013-03-23 15:23:00,
2013-03-23 11:28:00,31.4,22.7,30.14,NW,313,8.3,9.4,70,0.00,,OVC030,0.00,VWS V14.01,2013-03-23 15:28:00,
2013-03-23 11:33:00,31.6,22.9,30.15,NW,324,9.4,14.2,70,0.00,,OVC030,0.00,VWS V14.01,2013-03-23 15:33:00,
2013-03-23 11:38:00,31.6,22.1,30.15,North,355,10.6,15.3,68,0.00,,OVC030,0.00,VWS V14.01,2013-03-23 15:38:00,
2013-03-23 11:43:00,31.7,22.6,30.15,NW,325,10.6,13.0,69,0.00,,OVC030,0.00,VWS V14.01,2013-03-23 15:43:00,
2013-03-23 11:48:00,31.7,22.6,30.15,North,5,10.6,11.8,69,0.00,,OVC030,0.00,VWS V14.01,2013-03-23 15:48:00,
2013-03-23 15:44:00,31.9,22.8,30.15,North,360,4.7,7.1,69,0.00,,OVC033,0.00,VWS V14.01,2013-03-23 19:44:00,
2013-03-23 15:49:00,36.7,24.8,30.08,NNE,12,11.8,14.2,62,0.00,,OVC033,0.00,VWS V14.01,2013-03-23 19:49:00,
2013-03-23 15:54:00,38.4,23.9,30.09,North,355,7.1,7.1,56,0.00,,OVC033,0.00,VWS V14.01,2013-03-23 19:54:00,
2013-03-23 15:59:00,39.3,23.9,30.09,NNW,333,3.5,8.3,54,0.00,,OVC033,0.00,VWS V14.01,2013-03-23 19:59:00,
2013-03-23 16:04:00,38.9,24.8,30.10,NNE,24,7.1,15.3,57,0.00,,OVC033,0.00,VWS V14.01,2013-03-23 20:04:00,
2013-03-23 16:09:00,37.4,24.2,30.10,North,5,10.6,11.8,59,0.00,,OVC033,0.00,VWS V14.01,2013-03-23 20:09:00,
2013-03-23 16:14:00,36.4,23.3,30.10,ENE,71,3.5,5.9,59,0.00,,OVC033,0.00,VWS V14.01,2013-03-23 20:14:00,
2013-03-23 16:19:00,36.3,24.0,30.10,NNE,23,10.6,13.0,61,0.00,,OVC033,0.00,VWS V14.01,2013-03-23 20:19:00,
2013-03-23 16:24:00,36.9,24.6,30.09,NNE,12,11.8,14.2,61,0.00,,OVC033,0.00,VWS V14.01,2013-03-23 20:24:00,
2013-03-23 16:29:00,37.4,24.2,30.10,NE,46,5.9,7.1,59,0.00,,OVC033,0.00,VWS V14.01,2013-03-23 20:29:00,
2013-03-23 16:35:00,36.6,23.1,30.10,ENE,59,4.7,5.9,58,0.00,,OVC033,0.00,VWS V14.01,2013-03-23 20:35:00,
2013-03-23 16:40:00,36.7,24.0,30.09,ENE,58,4.7,7.1,60,0.00,,OVC033,0.00,VWS V14.01,2013-03-23 20:40:00,
2013-03-23 16:45:00,37.0,23.4,30.09,NNE,15,13.0,14.2,58,0.00,,OVC033,0.00,VWS V14.01,2013-03-23 20:45:00,
2013-03-23 16:50:00,36.9,23.8,30.09,NNE,17,9.4,9.4,59,0.00,,OVC033,0.00,VWS V14.01,2013-03-23 20:50:00,
2013-03-23 16:55:00,37.3,23.7,30.09,NNE,17,3.5,3.5,58,0.00,,OVC033,0.00,VWS V14.01,2013-03-23 20:55:00,
2013-03-23 17:00:00,38.3,24.2,30.09,North,5,5.9,8.3,57,0.00,,OVC033,0.00,VWS V14.01,2013-03-23 21:00:00,
2013-03-23 17:05:00,38.4,23.5,30.09,NE,53,3.5,5.9,55,0.00,,OVC033,0.00,VWS V14.01,2013-03-23 21:05:00,
2013-03-23 17:10:00,37.6,24.4,30.09,North,9,5.9,9.4,59,0.00,,OVC033,0.00,VWS V14.01,2013-03-23 21:10:00,
2013-03-23 17:15:00,38.3,24.7,30.09,North,11,7.1,10.6,58,0.00,,OVC033,0.00,VWS V14.01,2013-03-23 21:15:00,
2013-03-23 17:20:00,38.6,24.5,30.09,NNW,342,10.6,11.8,57,0.00,,OVC033,0.00,VWS V14.01,2013-03-23 21:20:00,
2013-03-23 17:25:00,37.7,23.7,30.09,NW,313,5.9,9.4,57,0.00,,OVC033,0.00,VWS V14.01,2013-03-23 21:25:00,
2013-03-23 17:30:00,38.3,24.2,30.09,North,355,5.9,9.4,57,0.00,,OVC033,0.00,VWS V14.01,2013-03-23 21:30:00,
2013-03-23 17:35:00,39.0,24.0,30.10,North,355,3.5,4.7,55,0.00,,OVC033,0.00,VWS V14.01,2013-03-23 21:35:00,
2013-03-23 17:40:00,38.7,24.2,30.09,NNE,15,9.4,11.8,56,0.00,,SCT035,0.00,VWS V14.01,2013-03-23 21:40:00,
2013-03-23 17:45:00,38.3,23.8,30.09,North,360,5.9,11.8,56,0.00,,SCT035,0.00,VWS V14.01,2013-03-23 21:45:00,
2013-03-23 17:50:00,38.1,23.6,30.09,NNE,31,8.3,9.4,56,0.00,,SCT035,0.00,VWS V14.01,2013-03-23 21:50:00,
2013-03-23 17:55:00,38.0,23.1,30.09,NNE,16,2.4,7.1,55,0.00,,SCT035,0.00,VWS V14.01,2013-03-23 21:55:00,
2013-03-23 18:00:00,37.6,23.1,30.08,NE,49,3.5,8.3,56,0.00,,SCT035,0.00,VWS V14.01,2013-03-23 22:00:00,
2013-03-23 18:05:00,37.7,23.7,30.08,NNE,19,7.1,10.6,57,0.00,,SCT035,0.00,VWS V14.01,2013-03-23 22:05:00,
2013-03-23 18:10:00,37.6,23.6,30.07,NNE,32,10.6,11.8,57,0.00,,SCT035,0.00,VWS V14.01,2013-03-23 22:10:00,
2013-03-23 18:15:00,37.4,23.8,30.07,North,5,8.3,10.6,58,0.00,,SCT035,0.00,VWS V14.01,2013-03-23 22:15:00,
2013-03-23 18:20:00,37.3,24.1,30.07,North,360,8.3,11.8,59,0.00,,SCT035,0.00,VWS V14.01,2013-03-23 22:20:00,
2013-03-23 18:25:00,37.1,23.5,30.06,NNW,331,7.1,9.4,58,0.00,,SCT035,0.00,VWS V14.01,2013-03-23 22:25:00,
2013-03-23 18:30:00,37.1,23.9,30.06,North,5,9.4,11.8,59,0.00,,SCT035,0.00,VWS V14.01,2013-03-23 22:30:00,
2013-03-23 18:35:00,37.1,23.9,30.06,NNE,18,9.4,10.6,59,0.00,,SCT035,0.00,VWS V14.01,2013-03-23 22:35:00,
2013-03-23 18:40:00,36.7,24.0,30.06,NNE,21,10.6,11.8,60,0.00,,FEW035,0.00,VWS V14.01,2013-03-23 22:40:00,
2013-03-23 18:45:00,36.3,24.0,30.06,North,5,9.4,11.8,61,0.00,,FEW035,0.00,VWS V14.01,2013-03-23 22:45:00,
2013-03-23 18:50:00,36.3,24.0,30.07,NNW,344,8.3,8.3,61,0.00,,FEW035,0.00,VWS V14.01,2013-03-23 22:50:00,
2013-03-23 18:55:00,36.1,23.4,30.07,North,355,5.9,8.3,60,0.00,,FEW035,0.00,VWS V14.01,2013-03-23 22:55:00,
2013-03-23 19:00:00,36.0,23.3,30.06,North,9,8.3,10.6,60,0.00,,FEW035,0.00,VWS V14.01,2013-03-23 23:00:00,
2013-03-23 19:05:00,35.7,23.4,30.06,North,355,9.4,10.6,61,0.00,,FEW035,0.00,VWS V14.01,2013-03-23 23:05:00,
2013-03-23 19:10:00,35.4,23.5,30.06,NNE,23,5.9,8.3,62,0.00,,FEW035,0.00,VWS V14.01,2013-03-23 23:10:00,
2013-03-23 19:15:00,35.3,23.5,30.06,North,350,7.1,8.3,62,0.00,,FEW035,0.00,VWS V14.01,2013-03-23 23:15:00,
2013-03-23 19:20:00,35.1,23.3,30.06,North,355,5.9,8.3,62,0.00,,FEW035,0.00,VWS V14.01,2013-03-23 23:20:00,
2013-03-23 19:25:00,35.0,23.2,30.06,North,350,2.4,5.9,62,0.00,,FEW035,0.00,VWS V14.01,2013-03-23 23:25:00,
2013-03-23 19:30:00,34.7,22.9,30.06,North,9,5.9,5.9,62,0.00,,FEW035,0.00,VWS V14.01,2013-03-23 23:30:00,
2013-03-23 19:35:00,34.5,23.1,30.06,North,5,5.9,8.3,63,0.00,,FEW035,0.00,VWS V14.01,2013-03-23 23:35:00,
2013-03-23 19:40:00,34.2,22.8,30.06,North,360,7.1,9.4,63,0.00,,FEW035,0.00,VWS V14.01,2013-03-23 23:40:00,
2013-03-23 19:45:00,33.9,22.9,30.06,North,360,5.9,5.9,64,0.00,,FEW035,0.00,VWS V14.01,2013-03-23 23:45:00,
2013-03-23 19:50:00,33.6,23.0,30.06,North,5,7.1,9.4,65,0.00,,FEW035,0.00,VWS V14.01,2013-03-23 23:50:00,
2013-03-23 19:55:00,33.3,22.7,30.06,NNE,15,5.9,7.1,65,0.00,,FEW035,0.00,VWS V14.01,2013-03-23 23:55:00,
2013-03-23 20:00:00,33.0,22.8,30.06,NNE,14,4.7,8.3,66,0.00,,FEW035,0.00,VWS V14.01,2013-03-24 00:00:00,
2013-03-23 20:05:00,32.8,22.6,30.06,NNE,22,5.9,8.3,66,0.00,,FEW035,0.00,VWS V14.01,2013-03-24 00:05:00,
2013-03-23 20:10:00,32.5,22.3,30.06,NNE,28,4.7,5.9,66,0.00,,CLR,0.00,VWS V14.01,2013-03-24 00:10:00,
2013-03-23 20:15:00,32.3,22.1,30.06,NNE,28,3.5,4.7,66,0.00,,CLR,0.00,VWS V14.01,2013-03-24 00:15:00,
2013-03-23 20:20:00,32.2,22.4,30.06,NNE,28,3.5,3.5,67,0.00,,CLR,0.00,VWS V14.01,2013-03-24 00:20:00,
2013-03-23 20:25:00,32.0,22.2,30.06,NNE,28,3.5,5.9,67,0.00,,CLR,0.00,VWS V14.01,2013-03-24 00:25:00,
2013-03-23 20:30:00,31.7,22.2,30.07,NNE,20,4.7,5.9,68,0.00,,CLR,0.00,VWS V14.01,2013-03-24 00:30:00,
2013-03-23 20:35:00,31.6,22.1,30.06,NNE,28,3.5,4.7,68,0.00,,CLR,0.00,VWS V14.01,2013-03-24 00:35:00,
2013-03-23 20:40:00,31.6,22.5,30.06,NNE,28,2.4,5.9,69,0.00,,CLR,0.00,VWS V14.01,2013-03-24 00:40:00,
2013-03-23 20:45:00,31.4,22.3,30.06,NNE,28,2.4,3.5,69,0.00,,CLR,0.00,VWS V14.01,2013-03-24 00:45:00,
2013-03-23 20:50:00,31.3,22.2,30.07,NNE,28,1.2,2.4,69,0.00,,CLR,0.00,VWS V14.01,2013-03-24 00:50:00,
2013-03-23 20:55:00,31.0,21.9,30.06,NNE,28,2.4,2.4,69,0.00,,CLR,0.00,VWS V14.01,2013-03-24 00:55:00,
2013-03-23 21:00:00,30.8,21.7,30.06,NNE,28,2.4,2.4,69,0.00,,CLR,0.00,VWS V14.01,2013-03-24 01:00:00,
2013-03-23 21:05:00,30.7,22.0,30.07,NNE,28,2.4,3.5,70,0.00,,CLR,0.00,VWS V14.01,2013-03-24 01:05:00,
2013-03-23 21:10:00,30.5,21.8,30.07,NNE,28,2.4,3.5,70,0.00,,CLR,0.00,VWS V14.01,2013-03-24 01:10:00,
2013-03-23 21:15:00,30.4,21.7,30.07,NNE,28,3.5,3.5,70,0.00,,CLR,0.00,VWS V14.01,2013-03-24 01:15:00,
2013-03-23 21:20:00,30.2,21.8,30.06,NNE,28,3.5,4.7,71,0.00,,CLR,0.00,VWS V14.01,2013-03-24 01:20:00,
2013-03-23 21:25:00,30.1,21.8,30.06,NNE,28,2.4,3.5,71,0.00,,CLR,0.00,VWS V14.01,2013-03-24 01:25:00,
2013-03-23 21:30:00,29.9,21.6,30.06,NNE,28,2.4,3.5,71,0.00,,CLR,0.00,VWS V14.01,2013-03-24 01:30:00,
2013-03-23 21:35:00,29.6,21.3,30.07,NNE,28,2.4,3.5,71,0.00,,CLR,0.00,VWS V14.01,2013-03-24 01:35:00,
2013-03-23 21:40:00,29.5,21.5,30.07,NNE,28,2.4,3.5,72,0.00,,CLR,0.00,VWS V14.01,2013-03-24 01:40:00,
2013-03-23 21:45:00,29.2,21.2,30.07,NNE,28,3.5,4.7,72,0.00,,CLR,0.00,VWS V14.01,2013-03-24 01:45:00,
2013-03-23 21:50:00,28.9,21.3,30.07,NNE,28,3.5,5.9,73,0.00,,CLR,0.00,VWS V14.01,2013-03-24 01:50:00,
2013-03-23 21:55:00,28.8,21.5,30.07,NNE,28,4.7,5.9,74,0.00,,CLR,0.00,VWS V14.01,2013-03-24 01:55:00,
2013-03-23 22:00:00,28.5,21.5,30.07,NNE,28,2.4,4.7,75,0.00,,CLR,0.00,VWS V14.01,2013-03-24 02:00:00,
2013-03-23 22:05:00,28.5,21.5,30.06,NNE,28,5.9,7.1,75,0.00,,CLR,0.00,VWS V14.01,2013-03-24 02:05:00,
2013-03-23 22:10:00,28.5,21.8,30.06,NE,34,4.7,5.9,76,0.00,,CLR,0.00,VWS V14.01,2013-03-24 02:10:00,
2013-03-23 22:15:00,28.6,21.9,30.06,NE,34,4.7,5.9,76,0.00,,CLR,0.00,VWS V14.01,2013-03-24 02:15:00,
2013-03-23 22:20:00,28.8,21.8,30.05,NE,34,5.9,5.9,75,0.00,,CLR,0.00,VWS V14.01,2013-03-24 02:20:00,
2013-03-23 22:25:00,28.8,21.8,30.05,NNE,27,4.7,7.1,75,0.00,,CLR,0.00,VWS V14.01,2013-03-24 02:25:00,
2013-03-23 22:30:00,28.9,21.9,30.05,NNE,17,5.9,5.9,75,0.00,,CLR,0.00,VWS V14.01,2013-03-24 02:30:00,
2013-03-23 22:35:00,28.9,21.9,30.05,NNE,28,5.9,5.9,75,0.00,,CLR,0.00,VWS V14.01,2013-03-24 02:35:00,
2013-03-23 22:40:00,28.9,21.9,30.05,ENE,69,3.5,7.1,75,0.00,,CLR,0.00,VWS V14.01,2013-03-24 02:40:00,
2013-03-23 22:45:00,28.9,21.9,30.05,NNE,26,3.5,4.7,75,0.00,,CLR,0.00,VWS V14.01,2013-03-24 02:45:00,
2013-03-23 22:50:00,28.8,21.8,30.04,NE,36,4.7,8.3,75,0.00,,CLR,0.00,VWS V14.01,2013-03-24 02:50:00,
2013-03-23 22:55:00,28.8,21.8,30.04,NE,39,5.9,8.3,75,0.00,,CLR,0.00,VWS V14.01,2013-03-24 02:55:00,
2013-03-23 23:00:00,28.8,21.8,30.04,NE,37,4.7,7.1,75,0.00,,CLR,0.00,VWS V14.01,2013-03-24 03:00:00,
2013-03-23 23:05:00,28.8,22.1,30.04,NE,51,5.9,8.3,76,0.00,,CLR,0.00,VWS V14.01,2013-03-24 03:05:00,
2013-03-23 23:10:00,28.8,22.1,30.04,NE,55,7.1,7.1,76,0.00,,CLR,0.00,VWS V14.01,2013-03-24 03:10:00,
2013-03-23 23:15:00,28.8,22.1,30.03,NE,37,5.9,7.1,76,0.00,,CLR,0.00,VWS V14.01,2013-03-24 03:15:00,
2013-03-23 23:20:00,28.8,22.1,30.03,NE,38,5.9,8.3,76,0.00,,CLR,0.00,VWS V14.01,2013-03-24 03:20:00,
2013-03-23 23:25:00,28.8,22.1,30.03,NE,42,5.9,9.4,76,0.00,,CLR,0.00,VWS V14.01,2013-03-24 03:25:00,
2013-03-23 23:30:00,28.8,22.4,30.03,NE,46,7.1,7.1,77,0.00,,CLR,0.00,VWS V14.01,2013-03-24 03:30:00,
2013-03-23 23:35:00,28.8,22.4,30.03,NE,46,3.5,7.1,77,0.00,,CLR,0.00,VWS V14.01,2013-03-24 03:35:00,
2013-03-23 23:40:00,28.8,22.4,30.03,NE,54,5.9,7.1,77,0.00,,CLR,0.00,VWS V14.01,2013-03-24 03:40:00,
2013-03-23 23:45:00,28.8,22.4,30.03,NE,46,4.7,7.1,77,0.00,,CLR,0.00,VWS V14.01,2013-03-24 03:45:00,
2013-03-23 23:50:00,28.6,22.2,30.03,NNE,32,5.9,5.9,77,0.00,,CLR,0.00,VWS V14.01,2013-03-24 03:50:00,
2013-03-23 23:55:00,28.6,22.2,30.03,NE,47,3.5,4.7,77,0.00,,CLR,0.00,VWS V14.01,2013-03-24 03:55:00,